Time;durP1;ratioP1;P1;durP2;ratioP2;P2;SDS_P1;SDS_P2;PMS_P1;PMS_P2;Temp;Humidity;BMP_temperature;BMP_pressure;BME280_temperature;BME280_humidity;BME280_pressure;Samples;Min_cycle;Max_cycle;Signal;HPM_P1;HPM_P2
2021/08/09 00:00:56;;;;;;;3.38;1.20;;;;;;;;;;5007215;28;20413;-82
2021/08/09 00:03:21;;;;;;;2.60;1.20;;;;;;;;;;5001818;28;20037;-82
2021/08/09 00:05:47;;;;;;;3.28;1.30;;;;;;;;;;5010082;28;20034;-81
2021/08/09 00:08:12;;;;;;;3.38;1.40;;;;;;;;;;4986648;28;20515;-82
2021/08/09 00:10:38;;;;;;;3.60;1.30;;;;;;;;;;4994162;28;20092;-81
2021/08/09 00:13:03;;;;;;;3.08;0.80;;;;;;;;;;4991844;28;20077;-82
2021/08/09 00:15:29;;;;;;;3.97;1.42;;;;;;;;;;4994029;28;20045;-81
2021/08/09 00:17:55;;;;;;;2.00;1.00;;;;;;;;;;5005398;28;20045;-82
2021/08/09 00:20:20;;;;;;;3.75;1.23;;;;;;;;;;4990409;28;20052;-81
2021/08/09 00:22:46;;;;;;;2.95;1.20;;;;;;;;;;4994091;28;20500;-81
2021/08/09 00:25:11;;;;;;;2.47;0.98;;;;;;;;;;4977624;28;20092;-81
2021/08/09 00:27:37;;;;;;;2.33;0.70;;;;;;;;;;4993506;28;20030;-81
2021/08/09 00:30:03;;;;;;;2.20;1.05;;;;;;;;;;4994098;28;20439;-81
2021/08/09 00:32:28;;;;;;;2.22;1.08;;;;;;;;;;4994311;28;20033;-81
2021/08/09 00:34:54;;;;;;;2.70;1.20;;;;;;;;;;4977729;28;20566;-81
2021/08/09 00:37:19;;;;;;;3.45;1.15;;;;;;;;;;4993460;28;20073;-82
2021/08/09 00:39:45;;;;;;;3.60;1.02;;;;;;;;;;4993957;28;20046;-81
2021/08/09 00:42:10;;;;;;;2.42;0.90;;;;;;;;;;5009641;28;20030;-81
2021/08/09 00:44:36;;;;;;;1.92;0.98;;;;;;;;;;4990847;28;20042;-81
2021/08/09 00:47:01;;;;;;;3.33;0.98;;;;;;;;;;4993198;28;20556;-81
2021/08/09 00:49:27;;;;;;;2.88;1.08;;;;;;;;;;4977128;28;20034;-81
2021/08/09 00:51:55;;;;;;;3.47;1.17;;;;;;;;;;5026612;28;20492;-81
2021/08/09 00:54:20;;;;;;;2.42;1.00;;;;;;;;;;4994515;28;20042;-81
2021/08/09 00:56:46;;;;;;;2.22;0.98;;;;;;;;;;5010269;28;20030;-82
2021/08/09 00:59:12;;;;;;;2.65;1.15;;;;;;;;;;5010240;28;20496;-81
2021/08/09 01:01:37;;;;;;;3.28;0.93;;;;;;;;;;4977506;28;20022;-81
2021/08/09 01:04:03;;;;;;;3.15;0.95;;;;;;;;;;4993311;28;20052;-82
2021/08/09 01:06:29;;;;;;;1.92;0.95;;;;;;;;;;4993708;28;20385;-82
2021/08/09 01:09:07;;;;;;;2.35;0.98;;;;;;;;;;4993598;28;20044;-82
2021/08/09 01:11:46;;;;;;;2.63;1.15;;;;;;;;;;4994158;28;20119;-81
2021/08/09 01:14:42;;;;;;;3.55;1.00;;;;;;;;;;4993364;28;20435;-82
2021/08/09 01:17:10;;;;;;;2.92;0.98;;;;;;;;;;4965010;28;20578;-81
2021/08/09 01:19:39;;;;;;;2.75;0.90;;;;;;;;;;4996919;28;20053;-81
2021/08/09 01:22:39;;;;;;;2.85;0.90;;;;;;;;;;5013282;28;20041;-82
2021/08/09 01:25:35;;;;;;;2.65;1.00;;;;;;;;;;4983706;28;20034;-82
2021/08/09 01:28:01;;;;;;;2.67;0.90;;;;;;;;;;5012885;28;20034;-81
2021/08/09 01:30:26;;;;;;;2.08;0.77;;;;;;;;;;4980928;28;20381;-81
2021/08/09 01:32:53;;;;;;;1.65;0.90;;;;;;;;;;4996396;28;20500;-81
2021/08/09 01:35:19;;;;;;;2.50;0.82;;;;;;;;;;4996703;28;20038;-81
2021/08/09 01:37:47;;;;;;;2.88;1.13;;;;;;;;;;4977369;28;20034;-82
2021/08/09 01:40:12;;;;;;;4.70;1.05;;;;;;;;;;4994876;28;20069;-82
2021/08/09 01:42:38;;;;;;;2.28;0.80;;;;;;;;;;4980445;28;20373;-81
2021/08/09 01:45:05;;;;;;;1.55;0.70;;;;;;;;;;4977099;28;20397;-82
2021/08/09 01:47:30;;;;;;;2.28;0.93;;;;;;;;;;4967942;28;20070;-81
2021/08/09 01:49:56;;;;;;;3.22;1.45;;;;;;;;;;4976634;28;20416;-81
2021/08/09 01:52:21;;;;;;;1.63;0.80;;;;;;;;;;4981217;28;20052;-81
2021/08/09 01:54:48;;;;;;;3.15;1.13;;;;;;;;;;4996146;28;20041;-82
2021/08/09 01:57:13;;;;;;;1.88;0.80;;;;;;;;;;4996019;28;20412;-81
2021/08/09 01:59:40;;;;;;;2.40;1.00;;;;;;;;;;4996675;28;20092;-81
2021/08/09 02:02:05;;;;;;;1.90;0.77;;;;;;;;;;4996172;28;20037;-81
2021/08/09 02:04:31;;;;;;;2.40;1.02;;;;;;;;;;5012593;28;20037;-81
2021/08/09 02:06:56;;;;;;;2.75;0.90;;;;;;;;;;4995611;28;20030;-81
2021/08/09 02:09:21;;;;;;;2.40;0.80;;;;;;;;;;4996230;28;20127;-81
2021/08/09 02:11:55;;;;;;;3.20;1.25;;;;;;;;;;5012335;28;20404;-81
2021/08/09 02:14:23;;;;;;;2.60;1.00;;;;;;;;;;5012583;28;20559;-81
2021/08/09 02:17:00;;;;;;;3.63;1.15;;;;;;;;;;4996292;28;20477;-81
2021/08/09 02:19:51;;;;;;;2.20;1.02;;;;;;;;;;4992902;28;20134;-81
2021/08/09 02:22:31;;;;;;;2.53;1.20;;;;;;;;;;4999357;28;20050;-81
2021/08/09 02:25:12;;;;;;;2.03;0.80;;;;;;;;;;4992161;28;20042;-81
2021/08/09 02:27:46;;;;;;;2.65;0.80;;;;;;;;;;4991823;28;20041;-81
2021/08/09 02:30:12;;;;;;;2.08;0.88;;;;;;;;;;5008831;28;20092;-81
2021/08/09 02:32:38;;;;;;;3.67;1.27;;;;;;;;;;4979187;28;20065;-81
2021/08/09 02:35:04;;;;;;;2.08;1.10;;;;;;;;;;4976682;28;20065;-81
2021/08/09 02:37:29;;;;;;;2.28;0.70;;;;;;;;;;4980764;28;20044;-81
2021/08/09 02:39:55;;;;;;;2.85;0.75;;;;;;;;;;4993750;28;20041;-82
2021/08/09 02:42:20;;;;;;;1.92;0.77;;;;;;;;;;5011839;28;20038;-81
2021/08/09 02:44:46;;;;;;;2.13;0.93;;;;;;;;;;4989117;28;20058;-81
2021/08/09 02:47:12;;;;;;;2.13;1.00;;;;;;;;;;4986042;28;20025;-81
2021/08/09 02:49:39;;;;;;;3.17;1.10;;;;;;;;;;4995069;28;20497;-81
2021/08/09 02:52:06;;;;;;;1.65;0.73;;;;;;;;;;4996026;28;20026;-81
2021/08/09 02:54:31;;;;;;;2.70;1.10;;;;;;;;;;4995464;28;20409;-81
2021/08/09 02:56:57;;;;;;;2.17;0.77;;;;;;;;;;4994793;28;20038;-81
2021/08/09 02:59:22;;;;;;;2.85;1.10;;;;;;;;;;5011781;28;20125;-81
2021/08/09 03:01:48;;;;;;;2.40;0.70;;;;;;;;;;4995191;28;20034;-81
2021/08/09 03:04:14;;;;;;;1.55;0.90;;;;;;;;;;4994800;28;20041;-81
2021/08/09 03:06:40;;;;;;;2.38;0.80;;;;;;;;;;4995094;28;20048;-81
2021/08/09 03:09:06;;;;;;;2.78;0.93;;;;;;;;;;4994993;28;20042;-81
2021/08/09 03:11:33;;;;;;;4.43;1.10;;;;;;;;;;4995521;28;20033;-81
2021/08/09 03:13:59;;;;;;;3.40;1.13;;;;;;;;;;5027826;28;20117;-81
2021/08/09 03:16:24;;;;;;;2.88;0.90;;;;;;;;;;4994749;28;20117;-81
2021/08/09 03:18:50;;;;;;;3.22;0.95;;;;;;;;;;4994440;28;20049;-81
2021/08/09 03:21:15;;;;;;;2.33;0.90;;;;;;;;;;4994536;28;20104;-81
2021/08/09 03:23:41;;;;;;;2.38;0.90;;;;;;;;;;5011398;28;20046;-81
2021/08/09 03:26:06;;;;;;;2.15;0.82;;;;;;;;;;4994719;28;20038;-81
2021/08/09 03:28:32;;;;;;;2.75;0.82;;;;;;;;;;4994720;28;20084;-81
2021/08/09 03:30:59;;;;;;;1.40;0.60;;;;;;;;;;4994834;28;20515;-81
2021/08/09 03:33:24;;;;;;;3.88;1.38;;;;;;;;;;4994624;28;20070;-81
2021/08/09 03:35:50;;;;;;;2.85;0.88;;;;;;;;;;4978485;28;20060;-81
2021/08/09 03:38:15;;;;;;;2.38;0.73;;;;;;;;;;5011082;28;20046;-81
2021/08/09 03:40:41;;;;;;;2.45;0.80;;;;;;;;;;5011035;28;20038;-81
2021/08/09 03:43:06;;;;;;;2.85;0.90;;;;;;;;;;4978448;28;20042;-81
2021/08/09 03:45:32;;;;;;;3.25;1.50;;;;;;;;;;4990992;28;20031;-81
2021/08/09 03:47:57;;;;;;;2.33;0.63;;;;;;;;;;4962054;28;20169;-81
2021/08/09 03:50:23;;;;;;;1.55;0.70;;;;;;;;;;4993767;28;20041;-81
2021/08/09 03:52:53;;;;;;;2.10;0.70;;;;;;;;;;5010624;28;20034;-81
2021/08/09 03:55:18;;;;;;;2.03;0.70;;;;;;;;;;4978657;28;20116;-81
2021/08/09 03:57:44;;;;;;;2.17;0.85;;;;;;;;;;4978093;28;20042;-81
2021/08/09 04:00:10;;;;;;;1.88;1.00;;;;;;;;;;5013035;28;20041;-81
2021/08/09 04:02:37;;;;;;;2.63;0.68;;;;;;;;;;4994160;28;20045;-81
2021/08/09 04:05:04;;;;;;;1.88;0.70;;;;;;;;;;4994311;28;20168;-81
2021/08/09 04:07:29;;;;;;;1.98;0.90;;;;;;;;;;4994343;28;20046;-81
2021/08/09 04:09:55;;;;;;;4.78;0.85;;;;;;;;;;4994993;28;20034;-81
2021/08/09 04:12:21;;;;;;;1.65;0.77;;;;;;;;;;5010692;28;20042;-81
2021/08/09 04:14:47;;;;;;;2.88;1.10;;;;;;;;;;4994510;28;20030;-81
2021/08/09 04:17:12;;;;;;;1.75;0.73;;;;;;;;;;4977486;28;20496;-81
2021/08/09 04:19:38;;;;;;;1.92;0.80;;;;;;;;;;4993530;28;20042;-81
2021/08/09 04:22:03;;;;;;;1.95;0.63;;;;;;;;;;4994039;28;20043;-81
2021/08/09 04:24:29;;;;;;;2.97;0.88;;;;;;;;;;4977977;28;20117;-81
2021/08/09 04:26:54;;;;;;;2.08;0.95;;;;;;;;;;5010286;28;20042;-82
2021/08/09 04:29:20;;;;;;;4.57;1.58;;;;;;;;;;4993685;28;20038;-81
2021/08/09 04:31:45;;;;;;;1.52;0.70;;;;;;;;;;5026787;28;20176;-81
2021/08/09 04:34:11;;;;;;;2.97;0.75;;;;;;;;;;4993728;28;20117;-81
2021/08/09 04:36:36;;;;;;;2.05;0.65;;;;;;;;;;4993777;28;20046;-81
2021/08/09 04:39:02;;;;;;;2.50;0.90;;;;;;;;;;5010239;28;20033;-81
2021/08/09 04:41:27;;;;;;;2.15;0.70;;;;;;;;;;4977513;28;20416;-82
2021/08/09 04:43:53;;;;;;;2.17;0.70;;;;;;;;;;5027057;28;20108;-81
2021/08/09 04:46:18;;;;;;;2.03;0.80;;;;;;;;;;5009929;28;20073;-81
2021/08/09 04:48:44;;;;;;;2.42;0.80;;;;;;;;;;4993565;28;20116;-81
2021/08/09 04:51:10;;;;;;;1.55;0.73;;;;;;;;;;4995248;28;20042;-81
2021/08/09 04:53:35;;;;;;;1.63;0.68;;;;;;;;;;5013973;28;20104;-81
2021/08/09 04:56:01;;;;;;;2.67;0.70;;;;;;;;;;5013845;28;20048;-81
2021/08/09 04:58:28;;;;;;;1.55;0.70;;;;;;;;;;5013739;28;20467;-81
2021/08/09 05:00:54;;;;;;;2.13;0.90;;;;;;;;;;4997675;28;20042;-80
2021/08/09 05:03:19;;;;;;;1.70;1.10;;;;;;;;;;4996896;28;20038;-81
2021/08/09 05:05:45;;;;;;;2.20;0.70;;;;;;;;;;5013650;28;20419;-81
2021/08/09 05:08:11;;;;;;;2.50;0.60;;;;;;;;;;4997532;28;20076;-81
2021/08/09 05:10:36;;;;;;;1.75;0.70;;;;;;;;;;5030268;28;20045;-81
2021/08/09 05:13:02;;;;;;;1.85;0.52;;;;;;;;;;4997270;28;20030;-81
2021/08/09 05:15:30;;;;;;;2.85;1.10;;;;;;;;;;5013957;28;20033;-81
2021/08/09 05:17:55;;;;;;;4.30;1.13;;;;;;;;;;4993653;28;20053;-81
2021/08/09 05:20:21;;;;;;;3.28;0.80;;;;;;;;;;4993654;28;20054;-81
2021/08/09 05:22:46;;;;;;;2.47;0.90;;;;;;;;;;5007111;28;20160;-81
2021/08/09 05:25:12;;;;;;;1.67;0.90;;;;;;;;;;5013215;28;20044;-81
2021/08/09 05:27:38;;;;;;;2.03;0.55;;;;;;;;;;4997079;28;20026;-81
2021/08/09 05:30:04;;;;;;;1.67;0.70;;;;;;;;;;4997516;28;20038;-81
2021/08/09 05:32:29;;;;;;;3.40;0.80;;;;;;;;;;4996356;28;20022;-81
2021/08/09 05:34:56;;;;;;;2.65;0.90;;;;;;;;;;4997201;28;20063;-81
2021/08/09 05:37:21;;;;;;;1.70;0.70;;;;;;;;;;4996873;28;20041;-82
2021/08/09 05:39:48;;;;;;;2.70;0.80;;;;;;;;;;5014686;28;20415;-81
2021/08/09 05:42:13;;;;;;;3.00;0.90;;;;;;;;;;4997038;28;20040;-80
2021/08/09 05:44:39;;;;;;;4.22;0.85;;;;;;;;;;4989374;28;20038;-80
2021/08/09 05:47:04;;;;;;;3.08;1.20;;;;;;;;;;4999397;28;20050;-80
2021/08/09 05:49:30;;;;;;;3.60;0.60;;;;;;;;;;4975352;28;20092;-80
2021/08/09 05:51:55;;;;;;;4.18;0.90;;;;;;;;;;4993343;28;20416;-79
2021/08/09 05:54:21;;;;;;;5.28;1.42;;;;;;;;;;4996715;28;20404;-79
2021/08/09 05:56:46;;;;;;;5.72;1.02;;;;;;;;;;4996113;28;20045;-79
2021/08/09 05:59:12;;;;;;;4.25;1.00;;;;;;;;;;4996751;28;20091;-80
2021/08/09 06:01:37;;;;;;;6.00;1.48;;;;;;;;;;4995741;28;20034;-80
2021/08/09 06:04:03;;;;;;;6.85;0.82;;;;;;;;;;5012256;28;20045;-79
2021/08/09 06:06:29;;;;;;;7.78;1.30;;;;;;;;;;4979979;28;20052;-80
2021/08/09 06:08:54;;;;;;;3.92;1.20;;;;;;;;;;4996526;28;20439;-79
2021/08/09 06:11:22;;;;;;;3.60;1.30;;;;;;;;;;4996231;28;20060;-80
2021/08/09 06:13:47;;;;;;;6.68;1.00;;;;;;;;;;4996828;28;20068;-80
2021/08/09 06:16:12;;;;;;;5.32;1.10;;;;;;;;;;4995725;28;20508;-80
2021/08/09 06:18:38;;;;;;;10.52;2.20;;;;;;;;;;4979544;28;20050;-80
2021/08/09 06:21:03;;;;;;;14.70;1.90;;;;;;;;;;4995686;28;20034;-80
2021/08/09 06:23:29;;;;;;;3.15;1.00;;;;;;;;;;4996132;28;20042;-81
2021/08/09 06:25:55;;;;;;;6.97;1.30;;;;;;;;;;4980688;28;20397;-81
2021/08/09 06:28:22;;;;;;;7.28;1.20;;;;;;;;;;4992465;28;20038;-81
2021/08/09 06:30:47;;;;;;;3.92;1.33;;;;;;;;;;4976470;28;20113;-83
2021/08/09 06:33:13;;;;;;;5.53;1.30;;;;;;;;;;4989898;28;20145;-80
2021/08/09 06:35:38;;;;;;;5.82;1.98;;;;;;;;;;4997268;28;20042;-81
2021/08/09 06:38:08;;;;;;;7.05;1.35;;;;;;;;;;4976651;28;20042;-81
2021/08/09 06:40:36;;;;;;;4.63;1.40;;;;;;;;;;4992425;28;20454;-80
2021/08/09 06:43:02;;;;;;;8.05;1.90;;;;;;;;;;4992313;28;20045;-79
2021/08/09 06:45:28;;;;;;;6.38;1.58;;;;;;;;;;4992041;28;20030;-80
2021/08/09 06:47:53;;;;;;;5.82;1.90;;;;;;;;;;4992162;28;20579;-80
2021/08/09 06:50:19;;;;;;;5.15;1.70;;;;;;;;;;4991694;28;20085;-80
2021/08/09 06:52:45;;;;;;;7.95;1.58;;;;;;;;;;4969270;28;20043;-83
2021/08/09 06:55:10;;;;;;;5.72;1.95;;;;;;;;;;4994379;28;20044;-82
2021/08/09 06:57:36;;;;;;;9.98;1.83;;;;;;;;;;4973151;28;20436;-82
2021/08/09 07:00:04;;;;;;;3.80;1.25;;;;;;;;;;4975755;28;20056;-82
2021/08/09 07:02:29;;;;;;;4.65;0.85;;;;;;;;;;4969342;28;20030;-82
2021/08/09 07:04:55;;;;;;;4.63;1.35;;;;;;;;;;4983648;28;20042;-82
2021/08/09 07:07:21;;;;;;;3.60;1.40;;;;;;;;;;4979307;28;20045;-82
2021/08/09 07:09:46;;;;;;;3.50;1.63;;;;;;;;;;4992132;28;20419;-81
2021/08/09 07:12:12;;;;;;;3.35;1.40;;;;;;;;;;4992560;28;20140;-81
2021/08/09 07:14:37;;;;;;;7.65;1.15;;;;;;;;;;4993937;28;20392;-81
2021/08/09 07:17:08;;;;;;;6.50;1.13;;;;;;;;;;4991724;28;20049;-81
2021/08/09 07:19:35;;;;;;;5.22;1.67;;;;;;;;;;4989626;28;20038;-81
2021/08/09 07:22:02;;;;;;;5.13;1.20;;;;;;;;;;4989568;28;20077;-81
2021/08/09 07:24:28;;;;;;;6.22;1.52;;;;;;;;;;4980537;28;20038;-82
2021/08/09 07:26:53;;;;;;;5.63;1.00;;;;;;;;;;4993838;28;20068;-82
2021/08/09 07:29:18;;;;;;;15.13;2.15;;;;;;;;;;4978159;28;20061;-81
2021/08/09 07:31:46;;;;;;;12.18;1.23;;;;;;;;;;4991458;28;20408;-81
2021/08/09 07:34:15;;;;;;;8.40;1.20;;;;;;;;;;4991931;28;20034;-81
2021/08/09 07:36:43;;;;;;;4.25;1.20;;;;;;;;;;4982185;28;20092;-81
2021/08/09 07:39:12;;;;;;;2.97;0.60;;;;;;;;;;4959098;28;20088;-81
2021/08/09 07:41:37;;;;;;;5.80;1.08;;;;;;;;;;4975472;28;20088;-82
2021/08/09 07:44:03;;;;;;;2.05;0.73;;;;;;;;;;4975929;28;20109;-80
2021/08/09 07:46:34;;;;;;;5.60;1.17;;;;;;;;;;4994326;28;20026;-81
2021/08/09 07:49:03;;;;;;;1.98;0.80;;;;;;;;;;4965082;28;20389;-81
2021/08/09 07:51:28;;;;;;;3.35;0.90;;;;;;;;;;4985139;28;20038;-80
2021/08/09 07:53:54;;;;;;;4.65;0.95;;;;;;;;;;4993461;28;20044;-81
2021/08/09 07:56:22;;;;;;;3.70;0.98;;;;;;;;;;4990899;28;20056;-80
2021/08/09 07:58:50;;;;;;;3.53;0.95;;;;;;;;;;4975442;28;20104;-81
2021/08/09 08:01:22;;;;;;;5.50;1.10;;;;;;;;;;4967470;28;20117;-81
2021/08/09 08:03:47;;;;;;;3.15;0.70;;;;;;;;;;4990237;28;20074;-81
2021/08/09 08:06:13;;;;;;;3.42;1.13;;;;;;;;;;4994491;28;20042;-80
2021/08/09 08:08:38;;;;;;;3.10;0.73;;;;;;;;;;4994436;28;20109;-81
2021/08/09 08:11:04;;;;;;;5.97;1.02;;;;;;;;;;4993575;28;20385;-81
2021/08/09 08:13:33;;;;;;;5.18;1.52;;;;;;;;;;4990132;28;20042;-81
2021/08/09 08:15:58;;;;;;;5.20;2.20;;;;;;;;;;5001321;28;20137;-81
2021/08/09 08:18:24;;;;;;;8.00;2.33;;;;;;;;;;4974662;28;20498;-81
2021/08/09 08:20:49;;;;;;;6.85;1.90;;;;;;;;;;5009088;28;20042;-83
2021/08/09 08:23:15;;;;;;;8.57;2.40;;;;;;;;;;4984775;28;20453;-81
2021/08/09 08:25:40;;;;;;;10.20;2.70;;;;;;;;;;4983747;28;20072;-81
2021/08/09 08:28:06;;;;;;;8.75;2.20;;;;;;;;;;4997293;28;20040;-81
2021/08/09 08:30:31;;;;;;;6.78;1.90;;;;;;;;;;4997947;28;20049;-81
2021/08/09 08:32:57;;;;;;;11.10;2.88;;;;;;;;;;4978401;28;20026;-82
2021/08/09 08:35:22;;;;;;;12.65;3.58;;;;;;;;;;4964190;28;20027;-83
2021/08/09 08:37:48;;;;;;;8.82;2.20;;;;;;;;;;5007789;28;20056;-81
2021/08/09 08:40:13;;;;;;;9.50;2.40;;;;;;;;;;4996235;28;20412;-82
2021/08/09 08:42:39;;;;;;;9.52;1.77;;;;;;;;;;4978820;28;20505;-82
2021/08/09 08:45:05;;;;;;;10.80;2.05;;;;;;;;;;4984101;28;20454;-81
2021/08/09 08:47:31;;;;;;;8.60;2.92;;;;;;;;;;4971605;28;20043;-81
2021/08/09 08:49:57;;;;;;;10.57;4.63;;;;;;;;;;4977836;28;20073;-81
2021/08/09 08:52:22;;;;;;;15.32;4.93;;;;;;;;;;4978600;28;20064;-81
2021/08/09 08:54:48;;;;;;;12.98;5.38;;;;;;;;;;4977899;28;20088;-81
2021/08/09 08:57:18;;;;;;;9.18;4.00;;;;;;;;;;4995716;28;20108;-81
2021/08/09 08:59:44;;;;;;;7.90;2.53;;;;;;;;;;4997950;28;20470;-81
2021/08/09 09:02:09;;;;;;;4.10;1.67;;;;;;;;;;4997490;28;20038;-81
2021/08/09 09:04:36;;;;;;;4.10;2.15;;;;;;;;;;4979045;28;20467;-81
2021/08/09 09:07:03;;;;;;;3.90;1.58;;;;;;;;;;4993005;28;20073;-82
2021/08/09 09:09:31;;;;;;;5.25;1.45;;;;;;;;;;4973135;28;20084;-81
2021/08/09 09:12:00;;;;;;;3.60;1.00;;;;;;;;;;5001516;28;20064;-81
2021/08/09 09:14:30;;;;;;;2.72;1.00;;;;;;;;;;4997248;28;20025;-82
2021/08/09 09:16:56;;;;;;;4.10;1.38;;;;;;;;;;4977748;28;20452;-81
2021/08/09 09:19:41;;;;;;;2.83;0.90;;;;;;;;;;4987113;28;20046;-82
2021/08/09 09:22:31;;;;;;;5.70;1.00;;;;;;;;;;4994276;28;20039;-81
2021/08/09 09:24:57;;;;;;;4.80;0.88;;;;;;;;;;4993197;28;20038;-81
2021/08/09 09:27:31;;;;;;;9.10;1.95;;;;;;;;;;4995885;28;20022;-81
2021/08/09 09:29:57;;;;;;;4.32;1.17;;;;;;;;;;4977724;28;20046;-82
2021/08/09 09:32:25;;;;;;;4.43;1.30;;;;;;;;;;4979449;28;20121;-82
2021/08/09 09:34:57;;;;;;;6.75;1.25;;;;;;;;;;4997502;28;20040;-81
2021/08/09 09:37:25;;;;;;;8.60;1.00;;;;;;;;;;4996777;28;20026;-82
2021/08/09 09:39:51;;;;;;;4.10;0.95;;;;;;;;;;4996415;28;20142;-81
2021/08/09 09:42:16;;;;;;;3.58;0.80;;;;;;;;;;4996900;28;20088;-83
2021/08/09 09:44:43;;;;;;;5.95;1.17;;;;;;;;;;4994635;28;20042;-83
2021/08/09 09:47:26;;;;;;;7.30;1.35;;;;;;;;;;4973656;28;20042;-83
2021/08/09 09:49:56;;;;;;;6.75;1.30;;;;;;;;;;4996287;28;20042;-82
2021/08/09 09:52:29;;;;;;;14.50;2.35;;;;;;;;;;5012740;28;20080;-83
2021/08/09 09:54:57;;;;;;;7.35;1.30;;;;;;;;;;5011919;28;20087;-82
2021/08/09 09:57:22;;;;;;;6.75;1.20;;;;;;;;;;4996866;28;20118;-83
2021/08/09 09:59:49;;;;;;;5.68;1.35;;;;;;;;;;4980324;28;20116;-83
2021/08/09 10:02:14;;;;;;;6.78;1.50;;;;;;;;;;4979977;28;20072;-83
2021/08/09 10:04:40;;;;;;;3.63;1.25;;;;;;;;;;4995990;28;20065;-82
2021/08/09 10:07:07;;;;;;;6.28;1.48;;;;;;;;;;4995763;28;20057;-83
2021/08/09 10:09:33;;;;;;;8.63;1.45;;;;;;;;;;4980309;28;20034;-82
2021/08/09 10:11:59;;;;;;;3.08;0.95;;;;;;;;;;4993056;28;20121;-82
2021/08/09 10:14:29;;;;;;;5.20;1.42;;;;;;;;;;4993124;28;20101;-79
2021/08/09 10:17:01;;;;;;;3.35;0.98;;;;;;;;;;4977160;28;20129;-80
2021/08/09 10:19:26;;;;;;;3.97;0.70;;;;;;;;;;4971114;28;20049;-80
2021/08/09 10:21:52;;;;;;;3.72;0.77;;;;;;;;;;4975917;28;20069;-81
2021/08/09 10:24:40;;;;;;;2.33;0.55;;;;;;;;;;4979543;28;20026;-80
2021/08/09 10:27:06;;;;;;;2.17;0.60;;;;;;;;;;4995211;28;20044;-84
2021/08/09 10:29:31;;;;;;;3.38;0.85;;;;;;;;;;4980220;28;20045;-81
2021/08/09 10:32:17;;;;;;;2.28;0.68;;;;;;;;;;4973311;28;20080;-80
2021/08/09 10:34:42;;;;;;;5.15;1.15;;;;;;;;;;4976758;28;20036;-80
2021/08/09 10:37:14;;;;;;;4.70;1.23;;;;;;;;;;4992405;28;20042;-80
2021/08/09 10:39:59;;;;;;;3.60;0.90;;;;;;;;;;4995592;28;20492;-80
2021/08/09 10:42:28;;;;;;;3.40;0.65;;;;;;;;;;4997141;28;20498;-79
2021/08/09 10:44:54;;;;;;;3.58;0.80;;;;;;;;;;5012750;28;20041;-79
2021/08/09 10:47:45;;;;;;;3.22;1.23;;;;;;;;;;4978203;28;20034;-79
2021/08/09 10:50:11;;;;;;;2.42;1.25;;;;;;;;;;5009751;28;20080;-80
2021/08/09 10:52:37;;;;;;;3.90;1.35;;;;;;;;;;5011601;28;20072;-79
2021/08/09 10:55:31;;;;;;;3.15;1.10;;;;;;;;;;4994056;28;20049;-80
2021/08/09 10:58:03;;;;;;;4.35;0.80;;;;;;;;;;5010782;28;20606;-78
2021/08/09 11:00:38;;;;;;;3.90;1.00;;;;;;;;;;4985663;28;20029;-81
2021/08/09 11:03:07;;;;;;;6.20;0.93;;;;;;;;;;5010974;28;20042;-79
2021/08/09 11:05:33;;;;;;;3.10;0.90;;;;;;;;;;5009567;28;20065;-79
2021/08/09 11:08:17;;;;;;;3.13;1.30;;;;;;;;;;4995617;28;20551;-80
2021/08/09 11:10:55;;;;;;;3.92;1.23;;;;;;;;;;5011351;28;20048;-80
2021/08/09 11:13:27;;;;;;;1.98;0.90;;;;;;;;;;5010746;28;20121;-80
2021/08/09 11:15:56;;;;;;;5.88;1.00;;;;;;;;;;4979538;28;20050;-81
2021/08/09 11:18:22;;;;;;;5.25;2.38;;;;;;;;;;4993393;28;20029;-80
2021/08/09 11:20:47;;;;;;;4.05;1.42;;;;;;;;;;4966561;28;20049;-80
2021/08/09 11:23:15;;;;;;;4.90;1.33;;;;;;;;;;4994968;28;20485;-80
2021/08/09 11:25:48;;;;;;;7.47;1.35;;;;;;;;;;4982062;28;20460;-80
2021/08/09 11:28:17;;;;;;;;;;;;;;;;;;4974967;28;20512;-80
2021/08/09 11:30:56;;;;;;;2.30;0.85;;;;;;;;;;5027574;28;19917;-80
2021/08/09 11:33:22;;;;;;;3.45;1.00;;;;;;;;;;5007281;28;20065;-80
2021/08/09 11:35:48;;;;;;;4.82;1.58;;;;;;;;;;5011279;28;20464;-80
2021/08/09 11:38:13;;;;;;;4.25;1.45;;;;;;;;;;4978580;28;20045;-80
2021/08/09 11:40:49;;;;;;;3.55;0.98;;;;;;;;;;4994905;28;20084;-81
2021/08/09 11:43:25;;;;;;;5.22;1.25;;;;;;;;;;4994791;28;20036;-80
2021/08/09 11:45:52;;;;;;;6.18;1.20;;;;;;;;;;4975438;28;20095;-80
2021/08/09 11:48:29;;;;;;;3.63;1.10;;;;;;;;;;4975110;28;20042;-81
2021/08/09 11:50:59;;;;;;;4.05;0.80;;;;;;;;;;4974761;28;20035;-79
2021/08/09 11:53:25;;;;;;;7.55;1.92;;;;;;;;;;4994081;28;20030;-79
2021/08/09 11:56:03;;;;;;;9.18;1.83;;;;;;;;;;4993919;28;20882;-79
2021/08/09 11:58:30;;;;;;;7.05;1.60;;;;;;;;;;4993240;28;20048;-79
2021/08/09 12:00:55;;;;;;;6.13;1.48;;;;;;;;;;4972544;28;20089;-79
2021/08/09 12:03:23;;;;;;;5.63;1.00;;;;;;;;;;4989266;28;20065;-78
2021/08/09 12:05:48;;;;;;;6.50;1.00;;;;;;;;;;4994428;28;20060;-79
2021/08/09 12:08:14;;;;;;;3.55;1.00;;;;;;;;;;4994507;28;20484;-78
2021/08/09 12:10:39;;;;;;;8.32;2.28;;;;;;;;;;4994117;28;20057;-79
2021/08/09 12:13:22;;;;;;;7.88;1.35;;;;;;;;;;4994138;28;20140;-79
2021/08/09 12:16:06;;;;;;;9.25;1.67;;;;;;;;;;4993410;28;20041;-79
2021/08/09 12:18:31;;;;;;;9.55;1.48;;;;;;;;;;5011510;28;20049;-81
2021/08/09 12:21:10;;;;;;;6.90;1.08;;;;;;;;;;4992493;28;20030;-79
2021/08/09 12:23:51;;;;;;;4.45;1.27;;;;;;;;;;4994534;28;20042;-79
2021/08/09 12:26:31;;;;;;;4.60;0.93;;;;;;;;;;5010398;28;20061;-79
2021/08/09 12:29:01;;;;;;;7.97;1.45;;;;;;;;;;4993808;28;20049;-79
2021/08/09 12:31:44;;;;;;;9.45;1.40;;;;;;;;;;4995051;28;20038;-79
2021/08/09 12:34:10;;;;;;;5.82;1.23;;;;;;;;;;4979436;28;20026;-79
2021/08/09 12:36:37;;;;;;;4.35;1.15;;;;;;;;;;4994118;28;20045;-79
2021/08/09 12:39:03;;;;;;;5.13;2.00;;;;;;;;;;4993869;28;20038;-79
2021/08/09 12:41:29;;;;;;;8.57;1.88;;;;;;;;;;4994580;28;20488;-79
2021/08/09 12:43:55;;;;;;;5.82;1.52;;;;;;;;;;4978137;28;20042;-79
2021/08/09 12:46:21;;;;;;;4.75;1.67;;;;;;;;;;4974058;28;20582;-79
2021/08/09 12:48:50;;;;;;;4.93;1.40;;;;;;;;;;4973528;28;20053;-79
2021/08/09 12:51:16;;;;;;;4.40;1.98;;;;;;;;;;4993838;28;20040;-79
2021/08/09 12:53:41;;;;;;;7.18;2.00;;;;;;;;;;4993792;28;20125;-79
2021/08/09 12:56:07;;;;;;;4.65;1.90;;;;;;;;;;5010160;28;20040;-79
2021/08/09 12:58:33;;;;;;;3.85;1.98;;;;;;;;;;4993976;28;20048;-79
2021/08/09 13:00:58;;;;;;;3.42;1.80;;;;;;;;;;4993924;28;20519;-79
2021/08/09 13:03:24;;;;;;;6.88;2.10;;;;;;;;;;5010209;28;20404;-79
2021/08/09 13:05:50;;;;;;;6.22;2.42;;;;;;;;;;4993739;28;20037;-79
2021/08/09 13:08:15;;;;;;;7.63;2.20;;;;;;;;;;4994384;28;20049;-79
2021/08/09 13:10:43;;;;;;;5.50;2.67;;;;;;;;;;4977559;28;20077;-79
2021/08/09 13:13:09;;;;;;;4.90;1.98;;;;;;;;;;4996798;28;20042;-79
2021/08/09 13:15:37;;;;;;;3.97;1.92;;;;;;;;;;5013799;28;20531;-79
2021/08/09 13:18:03;;;;;;;6.18;1.95;;;;;;;;;;4997311;28;20042;-79
2021/08/09 13:20:28;;;;;;;4.88;1.90;;;;;;;;;;4997257;28;20044;-79
2021/08/09 13:22:54;;;;;;;6.50;2.08;;;;;;;;;;4996919;28;20034;-79
2021/08/09 13:25:20;;;;;;;4.50;1.88;;;;;;;;;;5013479;28;20103;-79
2021/08/09 13:27:45;;;;;;;7.32;2.60;;;;;;;;;;4997375;28;20044;-79
2021/08/09 13:30:11;;;;;;;5.53;1.65;;;;;;;;;;4997202;28;20052;-79
2021/08/09 13:32:37;;;;;;;3.97;2.35;;;;;;;;;;4981037;28;20049;-79
2021/08/09 13:35:03;;;;;;;4.28;1.75;;;;;;;;;;4996769;28;20068;-79
2021/08/09 13:37:29;;;;;;;4.50;1.90;;;;;;;;;;4997165;28;20103;-79
2021/08/09 13:39:55;;;;;;;6.38;1.80;;;;;;;;;;5013422;28;20053;-78
2021/08/09 13:42:21;;;;;;;6.30;2.30;;;;;;;;;;4981126;28;20038;-79
2021/08/09 13:44:46;;;;;;;3.40;1.67;;;;;;;;;;4977294;28;20038;-79
2021/08/09 13:47:15;;;;;;;3.13;1.50;;;;;;;;;;4971407;28;20038;-79
2021/08/09 13:49:40;;;;;;;4.95;1.60;;;;;;;;;;4997158;28;20412;-79
2021/08/09 13:52:06;;;;;;;4.00;1.65;;;;;;;;;;4996701;28;20080;-79
2021/08/09 13:54:32;;;;;;;4.88;1.77;;;;;;;;;;4996854;28;20037;-79
2021/08/09 13:56:57;;;;;;;3.47;1.40;;;;;;;;;;5013107;28;20072;-79
2021/08/09 13:59:23;;;;;;;4.65;1.25;;;;;;;;;;5012812;28;20040;-79
2021/08/09 14:01:48;;;;;;;2.83;1.30;;;;;;;;;;5013020;28;20058;-80
2021/08/09 14:04:14;;;;;;;3.53;1.20;;;;;;;;;;5012920;28;20064;-79
2021/08/09 14:06:39;;;;;;;3.00;1.25;;;;;;;;;;4996347;28;20046;-79
2021/08/09 14:09:05;;;;;;;2.85;1.20;;;;;;;;;;4996607;28;20037;-79
2021/08/09 14:11:30;;;;;;;3.38;1.58;;;;;;;;;;4996523;28;20046;-79
2021/08/09 14:13:56;;;;;;;3.20;1.15;;;;;;;;;;4996258;28;20128;-79
2021/08/09 14:16:21;;;;;;;5.75;1.52;;;;;;;;;;4995960;28;20583;-79
2021/08/09 14:18:47;;;;;;;3.55;1.20;;;;;;;;;;5012608;28;20042;-79
2021/08/09 14:21:12;;;;;;;4.10;1.85;;;;;;;;;;5012180;28;20451;-80
2021/08/09 14:23:38;;;;;;;3.22;1.33;;;;;;;;;;5028085;28;20029;-79
2021/08/09 14:26:03;;;;;;;3.40;1.67;;;;;;;;;;5012355;28;20044;-79
2021/08/09 14:28:29;;;;;;;2.35;1.00;;;;;;;;;;5012370;28;20041;-79
2021/08/09 14:30:55;;;;;;;3.83;1.40;;;;;;;;;;4996072;28;20038;-79
2021/08/09 14:33:21;;;;;;;4.43;1.38;;;;;;;;;;4995927;28;20087;-79
2021/08/09 14:35:48;;;;;;;3.25;1.27;;;;;;;;;;4995674;28;20046;-79
2021/08/09 14:38:14;;;;;;;3.50;1.17;;;;;;;;;;4996270;28;20037;-79
2021/08/09 14:40:39;;;;;;;2.47;1.15;;;;;;;;;;4996136;28;20034;-79
2021/08/09 14:43:05;;;;;;;3.38;1.40;;;;;;;;;;4995463;28;20404;-79
2021/08/09 14:45:32;;;;;;;3.78;0.90;;;;;;;;;;4976622;28;20034;-79